sensor_id;sensor_type;location;lat;lon;timestamp;P1;durP1;ratioP1;P2;durP2;ratioP2
12135;SDS011;6131;56.420;15.548;2024-02-15T00:01:58;37.87;;;9.90;;
12135;SDS011;6131;56.420;15.548;2024-02-15T00:04:24;16.67;;;7.93;;
12135;SDS011;6131;56.420;15.548;2024-02-15T00:06:50;18.53;;;8.47;;
12135;SDS011;6131;56.420;15.548;2024-02-15T00:09:16;43.30;;;9.83;;
12135;SDS011;6131;56.420;15.548;2024-02-15T00:11:43;18.33;;;8.40;;
12135;SDS011;6131;56.420;15.548;2024-02-15T00:14:09;29.30;;;9.53;;
12135;SDS011;6131;56.420;15.548;2024-02-15T00:16:35;15.40;;;8.17;;
12135;SDS011;6131;56.420;15.548;2024-02-15T00:19:01;18.07;;;9.17;;
12135;SDS011;6131;56.420;15.548;2024-02-15T00:21:27;22.90;;;9.57;;
12135;SDS011;6131;56.420;15.548;2024-02-15T00:23:53;16.37;;;8.77;;
12135;SDS011;6131;56.420;15.548;2024-02-15T00:26:21;26.60;;;9.53;;
12135;SDS011;6131;56.420;15.548;2024-02-15T00:28:47;20.30;;;9.23;;
12135;SDS011;6131;56.420;15.548;2024-02-15T00:31:14;21.33;;;9.50;;
12135;SDS011;6131;56.420;15.548;2024-02-15T00:33:40;16.97;;;8.77;;
12135;SDS011;6131;56.420;15.548;2024-02-15T00:36:06;37.07;;;9.17;;
12135;SDS011;6131;56.420;15.548;2024-02-15T00:38:32;28.20;;;10.27;;
12135;SDS011;6131;56.420;15.548;2024-02-15T00:40:58;58.90;;;11.93;;
12135;SDS011;6131;56.420;15.548;2024-02-15T00:43:26;29.70;;;11.17;;
12135;SDS011;6131;56.420;15.548;2024-02-15T00:45:52;42.23;;;11.23;;
12135;SDS011;6131;56.420;15.548;2024-02-15T00:48:18;42.33;;;11.57;;
12135;SDS011;6131;56.420;15.548;2024-02-15T00:50:44;59.03;;;11.20;;
12135;SDS011;6131;56.420;15.548;2024-02-15T00:53:10;82.40;;;12.60;;
12135;SDS011;6131;56.420;15.548;2024-02-15T00:55:36;52.13;;;10.87;;
12135;SDS011;6131;56.420;15.548;2024-02-15T00:58:02;75.50;;;12.33;;
12135;SDS011;6131;56.420;15.548;2024-02-15T01:00:28;56.80;;;10.73;;
12135;SDS011;6131;56.420;15.548;2024-02-15T01:02:57;62.17;;;10.93;;
12135;SDS011;6131;56.420;15.548;2024-02-15T01:05:23;126.73;;;14.23;;
12135;SDS011;6131;56.420;15.548;2024-02-15T01:07:49;125.77;;;13.60;;
12135;SDS011;6131;56.420;15.548;2024-02-15T01:10:15;74.90;;;12.40;;
12135;SDS011;6131;56.420;15.548;2024-02-15T01:12:42;159.93;;;13.77;;
12135;SDS011;6131;56.420;15.548;2024-02-15T01:15:09;102.33;;;12.20;;
12135;SDS011;6131;56.420;15.548;2024-02-15T01:17:35;79.20;;;10.57;;
12135;SDS011;6131;56.420;15.548;2024-02-15T01:20:01;79.17;;;9.27;;
12135;SDS011;6131;56.420;15.548;2024-02-15T01:22:27;88.37;;;10.43;;
12135;SDS011;6131;56.420;15.548;2024-02-15T01:24:53;80.93;;;10.53;;
12135;SDS011;6131;56.420;15.548;2024-02-15T01:27:19;100.67;;;11.00;;
12135;SDS011;6131;56.420;15.548;2024-02-15T01:29:45;150.30;;;13.73;;
12135;SDS011;6131;56.420;15.548;2024-02-15T01:32:11;76.27;;;9.20;;
12135;SDS011;6131;56.420;15.548;2024-02-15T01:34:37;84.17;;;9.50;;
12135;SDS011;6131;56.420;15.548;2024-02-15T01:37:03;105.03;;;11.47;;
12135;SDS011;6131;56.420;15.548;2024-02-15T01:39:29;71.17;;;9.60;;
12135;SDS011;6131;56.420;15.548;2024-02-15T01:41:55;46.07;;;9.60;;
12135;SDS011;6131;56.420;15.548;2024-02-15T01:44:21;83.83;;;8.73;;
12135;SDS011;6131;56.420;15.548;2024-02-15T01:46:50;60.23;;;9.23;;
12135;SDS011;6131;56.420;15.548;2024-02-15T01:49:20;63.87;;;8.77;;
12135;SDS011;6131;56.420;15.548;2024-02-15T01:51:47;48.93;;;8.97;;
12135;SDS011;6131;56.420;15.548;2024-02-15T01:54:13;63.03;;;9.50;;
12135;SDS011;6131;56.420;15.548;2024-02-15T01:56:43;32.73;;;7.90;;
12135;SDS011;6131;56.420;15.548;2024-02-15T01:59:09;90.97;;;10.23;;
12135;SDS011;6131;56.420;15.548;2024-02-15T02:01:36;64.30;;;9.10;;
12135;SDS011;6131;56.420;15.548;2024-02-15T02:04:03;100.40;;;9.27;;
12135;SDS011;6131;56.420;15.548;2024-02-15T02:06:29;66.27;;;7.60;;
12135;SDS011;6131;56.420;15.548;2024-02-15T02:08:56;99.13;;;10.43;;
12135;SDS011;6131;56.420;15.548;2024-02-15T02:11:22;65.43;;;9.33;;
12135;SDS011;6131;56.420;15.548;2024-02-15T02:13:48;35.10;;;6.50;;
12135;SDS011;6131;56.420;15.548;2024-02-15T02:16:27;55.07;;;8.47;;
12135;SDS011;6131;56.420;15.548;2024-02-15T02:18:54;44.17;;;7.17;;
12135;SDS011;6131;56.420;15.548;2024-02-15T02:21:23;47.27;;;7.90;;
12135;SDS011;6131;56.420;15.548;2024-02-15T02:23:52;67.67;;;8.77;;
12135;SDS011;6131;56.420;15.548;2024-02-15T02:26:19;80.47;;;10.23;;
12135;SDS011;6131;56.420;15.548;2024-02-15T02:28:46;56.53;;;8.40;;
12135;SDS011;6131;56.420;15.548;2024-02-15T02:31:12;66.67;;;8.27;;
12135;SDS011;6131;56.420;15.548;2024-02-15T02:33:39;51.47;;;8.00;;
12135;SDS011;6131;56.420;15.548;2024-02-15T02:36:06;58.03;;;8.60;;
12135;SDS011;6131;56.420;15.548;2024-02-15T02:38:37;52.23;;;9.07;;
12135;SDS011;6131;56.420;15.548;2024-02-15T02:41:03;58.43;;;8.83;;
12135;SDS011;6131;56.420;15.548;2024-02-15T02:43:29;129.27;;;12.57;;
12135;SDS011;6131;56.420;15.548;2024-02-15T02:45:55;75.90;;;11.33;;
12135;SDS011;6131;56.420;15.548;2024-02-15T02:48:21;64.63;;;8.50;;
12135;SDS011;6131;56.420;15.548;2024-02-15T02:50:48;66.47;;;8.67;;
12135;SDS011;6131;56.420;15.548;2024-02-15T02:53:14;107.83;;;9.17;;
12135;SDS011;6131;56.420;15.548;2024-02-15T02:55:43;68.77;;;8.83;;
12135;SDS011;6131;56.420;15.548;2024-02-15T02:58:09;45.30;;;7.93;;
12135;SDS011;6131;56.420;15.548;2024-02-15T03:00:35;86.03;;;9.73;;
12135;SDS011;6131;56.420;15.548;2024-02-15T03:03:02;32.27;;;7.80;;
12135;SDS011;6131;56.420;15.548;2024-02-15T03:05:30;85.27;;;9.60;;
12135;SDS011;6131;56.420;15.548;2024-02-15T03:07:56;83.40;;;9.83;;
12135;SDS011;6131;56.420;15.548;2024-02-15T03:10:22;50.50;;;8.50;;
12135;SDS011;6131;56.420;15.548;2024-02-15T03:12:49;72.43;;;9.40;;
12135;SDS011;6131;56.420;15.548;2024-02-15T03:15:15;105.80;;;10.47;;
12135;SDS011;6131;56.420;15.548;2024-02-15T03:17:42;92.77;;;10.57;;
12135;SDS011;6131;56.420;15.548;2024-02-15T03:20:09;62.17;;;8.83;;
12135;SDS011;6131;56.420;15.548;2024-02-15T03:22:56;64.60;;;9.23;;
12135;SDS011;6131;56.420;15.548;2024-02-15T03:25:23;62.47;;;8.87;;
12135;SDS011;6131;56.420;15.548;2024-02-15T03:27:49;110.00;;;10.43;;
12135;SDS011;6131;56.420;15.548;2024-02-15T03:30:19;66.90;;;8.87;;
12135;SDS011;6131;56.420;15.548;2024-02-15T03:32:45;72.20;;;9.17;;
12135;SDS011;6131;56.420;15.548;2024-02-15T03:35:13;66.63;;;9.37;;
12135;SDS011;6131;56.420;15.548;2024-02-15T03:37:39;83.50;;;9.90;;
12135;SDS011;6131;56.420;15.548;2024-02-15T03:40:06;89.60;;;8.87;;
12135;SDS011;6131;56.420;15.548;2024-02-15T03:42:33;51.43;;;7.83;;
12135;SDS011;6131;56.420;15.548;2024-02-15T03:45:02;65.40;;;9.40;;
12135;SDS011;6131;56.420;15.548;2024-02-15T03:47:28;115.53;;;10.93;;
12135;SDS011;6131;56.420;15.548;2024-02-15T03:49:54;70.50;;;8.93;;
12135;SDS011;6131;56.420;15.548;2024-02-15T03:52:21;71.90;;;8.10;;
12135;SDS011;6131;56.420;15.548;2024-02-15T03:54:47;99.77;;;9.23;;
12135;SDS011;6131;56.420;15.548;2024-02-15T03:57:13;74.23;;;8.03;;
12135;SDS011;6131;56.420;15.548;2024-02-15T03:59:41;83.60;;;8.80;;
12135;SDS011;6131;56.420;15.548;2024-02-15T04:02:07;48.30;;;8.53;;
12135;SDS011;6131;56.420;15.548;2024-02-15T04:04:39;53.57;;;8.30;;
12135;SDS011;6131;56.420;15.548;2024-02-15T04:07:11;80.97;;;9.80;;
12135;SDS011;6131;56.420;15.548;2024-02-15T04:09:37;44.37;;;7.73;;
12135;SDS011;6131;56.420;15.548;2024-02-15T04:12:03;74.13;;;9.37;;
12135;SDS011;6131;56.420;15.548;2024-02-15T04:14:29;76.87;;;10.00;;
12135;SDS011;6131;56.420;15.548;2024-02-15T04:16:58;84.27;;;9.83;;
12135;SDS011;6131;56.420;15.548;2024-02-15T04:19:25;132.80;;;11.70;;
12135;SDS011;6131;56.420;15.548;2024-02-15T04:21:51;67.10;;;9.27;;
12135;SDS011;6131;56.420;15.548;2024-02-15T04:24:17;77.97;;;8.67;;
12135;SDS011;6131;56.420;15.548;2024-02-15T04:26:43;80.23;;;8.83;;
12135;SDS011;6131;56.420;15.548;2024-02-15T04:29:12;91.63;;;10.07;;
12135;SDS011;6131;56.420;15.548;2024-02-15T04:31:39;41.93;;;8.23;;
12135;SDS011;6131;56.420;15.548;2024-02-15T04:34:05;84.47;;;10.17;;
12135;SDS011;6131;56.420;15.548;2024-02-15T04:36:31;42.57;;;8.13;;
12135;SDS011;6131;56.420;15.548;2024-02-15T04:38:59;72.40;;;9.37;;
12135;SDS011;6131;56.420;15.548;2024-02-15T04:41:29;69.80;;;9.70;;
12135;SDS011;6131;56.420;15.548;2024-02-15T04:43:55;57.37;;;9.00;;
12135;SDS011;6131;56.420;15.548;2024-02-15T04:46:21;125.67;;;12.67;;
12135;SDS011;6131;56.420;15.548;2024-02-15T04:48:48;55.40;;;9.57;;
12135;SDS011;6131;56.420;15.548;2024-02-15T04:51:14;70.67;;;9.60;;
12135;SDS011;6131;56.420;15.548;2024-02-15T04:53:41;77.97;;;9.60;;
12135;SDS011;6131;56.420;15.548;2024-02-15T04:56:07;95.83;;;9.43;;
12135;SDS011;6131;56.420;15.548;2024-02-15T04:58:39;166.13;;;12.23;;
12135;SDS011;6131;56.420;15.548;2024-02-15T05:01:16;26.57;;;7.00;;
12135;SDS011;6131;56.420;15.548;2024-02-15T05:03:42;50.97;;;7.40;;
12135;SDS011;6131;56.420;15.548;2024-02-15T05:06:08;64.90;;;8.13;;
12135;SDS011;6131;56.420;15.548;2024-02-15T05:08:35;56.30;;;7.03;;
12135;SDS011;6131;56.420;15.548;2024-02-15T05:11:10;19.27;;;5.93;;
12135;SDS011;6131;56.420;15.548;2024-02-15T05:13:44;76.40;;;8.40;;
12135;SDS011;6131;56.420;15.548;2024-02-15T05:16:11;49.20;;;7.47;;
12135;SDS011;6131;56.420;15.548;2024-02-15T05:18:37;73.53;;;8.60;;
12135;SDS011;6131;56.420;15.548;2024-02-15T05:21:05;183.93;;;12.57;;
12135;SDS011;6131;56.420;15.548;2024-02-15T05:23:34;69.13;;;9.87;;
12135;SDS011;6131;56.420;15.548;2024-02-15T05:26:01;100.03;;;8.37;;
12135;SDS011;6131;56.420;15.548;2024-02-15T05:28:28;101.93;;;10.17;;
12135;SDS011;6131;56.420;15.548;2024-02-15T05:31:08;79.57;;;9.03;;
12135;SDS011;6131;56.420;15.548;2024-02-15T05:33:36;106.83;;;10.40;;
12135;SDS011;6131;56.420;15.548;2024-02-15T05:36:03;124.50;;;10.20;;
12135;SDS011;6131;56.420;15.548;2024-02-15T05:38:29;94.63;;;10.07;;
12135;SDS011;6131;56.420;15.548;2024-02-15T05:40:56;76.33;;;8.40;;
12135;SDS011;6131;56.420;15.548;2024-02-15T05:43:22;58.37;;;7.60;;
12135;SDS011;6131;56.420;15.548;2024-02-15T05:45:50;90.67;;;7.93;;
12135;SDS011;6131;56.420;15.548;2024-02-15T05:48:17;72.63;;;8.00;;
12135;SDS011;6131;56.420;15.548;2024-02-15T05:50:44;83.73;;;7.67;;
12135;SDS011;6131;56.420;15.548;2024-02-15T05:53:11;79.13;;;8.60;;
12135;SDS011;6131;56.420;15.548;2024-02-15T05:55:37;67.83;;;8.73;;
12135;SDS011;6131;56.420;15.548;2024-02-15T05:58:06;29.03;;;6.83;;
12135;SDS011;6131;56.420;15.548;2024-02-15T06:00:34;71.53;;;8.57;;
12135;SDS011;6131;56.420;15.548;2024-02-15T06:03:00;134.40;;;10.53;;
12135;SDS011;6131;56.420;15.548;2024-02-15T06:05:27;50.47;;;8.13;;
12135;SDS011;6131;56.420;15.548;2024-02-15T06:07:53;40.23;;;6.83;;
12135;SDS011;6131;56.420;15.548;2024-02-15T06:10:19;69.37;;;7.83;;
12135;SDS011;6131;56.420;15.548;2024-02-15T06:12:45;42.77;;;6.57;;
12135;SDS011;6131;56.420;15.548;2024-02-15T06:15:11;65.87;;;7.87;;
12135;SDS011;6131;56.420;15.548;2024-02-15T06:17:41;69.30;;;7.97;;
12135;SDS011;6131;56.420;15.548;2024-02-15T06:20:09;57.83;;;6.97;;
12135;SDS011;6131;56.420;15.548;2024-02-15T06:22:37;44.20;;;6.83;;
12135;SDS011;6131;56.420;15.548;2024-02-15T06:25:03;67.53;;;9.67;;
12135;SDS011;6131;56.420;15.548;2024-02-15T06:27:30;76.73;;;10.43;;
12135;SDS011;6131;56.420;15.548;2024-02-15T06:29:57;31.63;;;8.00;;
12135;SDS011;6131;56.420;15.548;2024-02-15T06:32:41;44.90;;;8.47;;
12135;SDS011;6131;56.420;15.548;2024-02-15T06:35:26;38.17;;;7.17;;
12135;SDS011;6131;56.420;15.548;2024-02-15T06:38:11;94.73;;;9.27;;
12135;SDS011;6131;56.420;15.548;2024-02-15T06:40:55;73.13;;;8.80;;
12135;SDS011;6131;56.420;15.548;2024-02-15T06:43:21;60.43;;;8.40;;
12135;SDS011;6131;56.420;15.548;2024-02-15T06:45:47;80.20;;;9.10;;
12135;SDS011;6131;56.420;15.548;2024-02-15T06:48:16;80.00;;;9.27;;
12135;SDS011;6131;56.420;15.548;2024-02-15T06:50:42;37.17;;;8.13;;
12135;SDS011;6131;56.420;15.548;2024-02-15T06:53:08;92.47;;;9.43;;
12135;SDS011;6131;56.420;15.548;2024-02-15T06:55:34;52.93;;;8.90;;
12135;SDS011;6131;56.420;15.548;2024-02-15T06:58:01;99.13;;;9.93;;
12135;SDS011;6131;56.420;15.548;2024-02-15T07:00:27;52.83;;;9.63;;
12135;SDS011;6131;56.420;15.548;2024-02-15T07:02:55;45.73;;;7.90;;
12135;SDS011;6131;56.420;15.548;2024-02-15T07:05:21;60.97;;;10.33;;
12135;SDS011;6131;56.420;15.548;2024-02-15T07:07:48;56.70;;;10.13;;
12135;SDS011;6131;56.420;15.548;2024-02-15T07:10:14;81.93;;;11.33;;
12135;SDS011;6131;56.420;15.548;2024-02-15T07:12:43;66.20;;;9.00;;
12135;SDS011;6131;56.420;15.548;2024-02-15T07:15:10;76.67;;;9.53;;
12135;SDS011;6131;56.420;15.548;2024-02-15T07:17:37;41.47;;;8.87;;
12135;SDS011;6131;56.420;15.548;2024-02-15T07:20:03;60.40;;;9.60;;
12135;SDS011;6131;56.420;15.548;2024-02-15T07:22:30;30.57;;;8.50;;
12135;SDS011;6131;56.420;15.548;2024-02-15T07:24:56;43.53;;;10.27;;
12135;SDS011;6131;56.420;15.548;2024-02-15T07:27:22;76.57;;;12.33;;
12135;SDS011;6131;56.420;15.548;2024-02-15T07:29:51;163.33;;;13.73;;
12135;SDS011;6131;56.420;15.548;2024-02-15T07:32:17;58.23;;;10.60;;
12135;SDS011;6131;56.420;15.548;2024-02-15T07:34:44;56.53;;;11.07;;
12135;SDS011;6131;56.420;15.548;2024-02-15T07:37:11;138.00;;;13.43;;
12135;SDS011;6131;56.420;15.548;2024-02-15T07:39:37;64.53;;;10.40;;
12135;SDS011;6131;56.420;15.548;2024-02-15T07:42:05;52.27;;;10.33;;
12135;SDS011;6131;56.420;15.548;2024-02-15T07:44:33;92.93;;;9.80;;
12135;SDS011;6131;56.420;15.548;2024-02-15T07:47:01;79.40;;;11.13;;
12135;SDS011;6131;56.420;15.548;2024-02-15T07:49:27;82.83;;;9.70;;
12135;SDS011;6131;56.420;15.548;2024-02-15T07:51:53;56.27;;;8.37;;
12135;SDS011;6131;56.420;15.548;2024-02-15T07:54:19;61.77;;;11.20;;
12135;SDS011;6131;56.420;15.548;2024-02-15T07:56:46;53.30;;;9.63;;
12135;SDS011;6131;56.420;15.548;2024-02-15T07:59:13;70.17;;;12.03;;
12135;SDS011;6131;56.420;15.548;2024-02-15T08:01:41;78.70;;;11.53;;
12135;SDS011;6131;56.420;15.548;2024-02-15T08:04:07;67.17;;;11.77;;
12135;SDS011;6131;56.420;15.548;2024-02-15T08:06:33;47.93;;;10.50;;
12135;SDS011;6131;56.420;15.548;2024-02-15T08:09:01;79.17;;;11.30;;
12135;SDS011;6131;56.420;15.548;2024-02-15T08:11:31;44.23;;;10.90;;
12135;SDS011;6131;56.420;15.548;2024-02-15T08:13:57;55.87;;;12.60;;
12135;SDS011;6131;56.420;15.548;2024-02-15T08:16:26;51.97;;;9.33;;
12135;SDS011;6131;56.420;15.548;2024-02-15T08:18:52;103.83;;;11.10;;
12135;SDS011;6131;56.420;15.548;2024-02-15T08:21:29;129.77;;;12.97;;
12135;SDS011;6131;56.420;15.548;2024-02-15T08:23:58;78.07;;;10.67;;
12135;SDS011;6131;56.420;15.548;2024-02-15T08:26:24;52.67;;;11.13;;
12135;SDS011;6131;56.420;15.548;2024-02-15T08:28:50;51.93;;;10.70;;
12135;SDS011;6131;56.420;15.548;2024-02-15T08:31:16;64.63;;;10.20;;
12135;SDS011;6131;56.420;15.548;2024-02-15T08:33:42;51.17;;;11.53;;
12135;SDS011;6131;56.420;15.548;2024-02-15T08:36:09;50.07;;;10.67;;
12135;SDS011;6131;56.420;15.548;2024-02-15T08:38:36;56.03;;;10.13;;
12135;SDS011;6131;56.420;15.548;2024-02-15T08:41:02;75.40;;;11.43;;
12135;SDS011;6131;56.420;15.548;2024-02-15T08:43:32;57.93;;;10.37;;
12135;SDS011;6131;56.420;15.548;2024-02-15T08:45:59;83.10;;;12.27;;
12135;SDS011;6131;56.420;15.548;2024-02-15T08:48:25;80.57;;;11.17;;
12135;SDS011;6131;56.420;15.548;2024-02-15T08:50:51;67.63;;;11.03;;
12135;SDS011;6131;56.420;15.548;2024-02-15T08:53:17;58.67;;;10.80;;
12135;SDS011;6131;56.420;15.548;2024-02-15T08:55:47;53.77;;;10.57;;
12135;SDS011;6131;56.420;15.548;2024-02-15T08:58:13;55.83;;;10.87;;
12135;SDS011;6131;56.420;15.548;2024-02-15T09:00:39;121.53;;;12.43;;
12135;SDS011;6131;56.420;15.548;2024-02-15T09:03:10;41.83;;;10.63;;
12135;SDS011;6131;56.420;15.548;2024-02-15T09:05:39;79.57;;;11.17;;
12135;SDS011;6131;56.420;15.548;2024-02-15T09:08:06;55.50;;;10.03;;
12135;SDS011;6131;56.420;15.548;2024-02-15T09:10:32;60.33;;;11.10;;
12135;SDS011;6131;56.420;15.548;2024-02-15T09:12:58;64.70;;;10.50;;
12135;SDS011;6131;56.420;15.548;2024-02-15T09:15:24;74.87;;;10.77;;
12135;SDS011;6131;56.420;15.548;2024-02-15T09:17:51;54.67;;;10.57;;
12135;SDS011;6131;56.420;15.548;2024-02-15T09:20:19;103.33;;;11.03;;
12135;SDS011;6131;56.420;15.548;2024-02-15T09:25:14;122.30;;;11.30;;
12135;SDS011;6131;56.420;15.548;2024-02-15T09:27:41;138.97;;;11.93;;
12135;SDS011;6131;56.420;15.548;2024-02-15T09:30:07;55.20;;;9.53;;
12135;SDS011;6131;56.420;15.548;2024-02-15T09:32:43;47.87;;;9.40;;
12135;SDS011;6131;56.420;15.548;2024-02-15T09:35:10;43.80;;;10.60;;
12135;SDS011;6131;56.420;15.548;2024-02-15T09:37:45;68.20;;;10.60;;
12135;SDS011;6131;56.420;15.548;2024-02-15T09:40:15;62.50;;;9.93;;
12135;SDS011;6131;56.420;15.548;2024-02-15T09:42:42;47.07;;;10.73;;
12135;SDS011;6131;56.420;15.548;2024-02-15T09:45:10;58.07;;;11.13;;
12135;SDS011;6131;56.420;15.548;2024-02-15T09:47:38;65.80;;;10.73;;
12135;SDS011;6131;56.420;15.548;2024-02-15T09:50:08;77.70;;;10.43;;
12135;SDS011;6131;56.420;15.548;2024-02-15T09:52:36;62.10;;;11.53;;
12135;SDS011;6131;56.420;15.548;2024-02-15T09:55:03;64.77;;;10.80;;
12135;SDS011;6131;56.420;15.548;2024-02-15T09:57:29;81.60;;;10.90;;
12135;SDS011;6131;56.420;15.548;2024-02-15T10:00:00;53.43;;;10.50;;
12135;SDS011;6131;56.420;15.548;2024-02-15T10:02:28;38.57;;;9.93;;
12135;SDS011;6131;56.420;15.548;2024-02-15T10:04:55;47.60;;;10.40;;
12135;SDS011;6131;56.420;15.548;2024-02-15T10:07:22;39.40;;;9.83;;
12135;SDS011;6131;56.420;15.548;2024-02-15T10:09:49;41.83;;;9.43;;
12135;SDS011;6131;56.420;15.548;2024-02-15T10:12:15;49.27;;;10.40;;
12135;SDS011;6131;56.420;15.548;2024-02-15T10:14:46;35.80;;;9.73;;
12135;SDS011;6131;56.420;15.548;2024-02-15T10:17:14;46.03;;;10.27;;
12135;SDS011;6131;56.420;15.548;2024-02-15T10:19:42;46.40;;;9.47;;
12135;SDS011;6131;56.420;15.548;2024-02-15T10:22:09;33.97;;;9.63;;
12135;SDS011;6131;56.420;15.548;2024-02-15T10:24:36;37.73;;;10.70;;
12135;SDS011;6131;56.420;15.548;2024-02-15T10:27:04;38.63;;;9.67;;
12135;SDS011;6131;56.420;15.548;2024-02-15T10:29:31;46.27;;;10.67;;
12135;SDS011;6131;56.420;15.548;2024-02-15T10:31:59;31.57;;;9.07;;
12135;SDS011;6131;56.420;15.548;2024-02-15T10:34:26;30.07;;;9.77;;
12135;SDS011;6131;56.420;15.548;2024-02-15T10:36:53;52.63;;;10.10;;
12135;SDS011;6131;56.420;15.548;2024-02-15T10:39:21;42.10;;;10.43;;
12135;SDS011;6131;56.420;15.548;2024-02-15T10:41:50;27.10;;;9.13;;
12135;SDS011;6131;56.420;15.548;2024-02-15T10:44:23;22.67;;;9.23;;
12135;SDS011;6131;56.420;15.548;2024-02-15T10:46:53;31.90;;;9.67;;
12135;SDS011;6131;56.420;15.548;2024-02-15T10:49:20;26.07;;;8.63;;
12135;SDS011;6131;56.420;15.548;2024-02-15T10:51:56;23.93;;;8.73;;
12135;SDS011;6131;56.420;15.548;2024-02-15T10:57:04;21.33;;;8.60;;
12135;SDS011;6131;56.420;15.548;2024-02-15T10:59:31;29.90;;;8.43;;
12135;SDS011;6131;56.420;15.548;2024-02-15T11:01:59;23.67;;;9.03;;
12135;SDS011;6131;56.420;15.548;2024-02-15T11:04:25;21.47;;;8.03;;
12135;SDS011;6131;56.420;15.548;2024-02-15T11:06:57;18.20;;;7.83;;
12135;SDS011;6131;56.420;15.548;2024-02-15T11:09:26;16.93;;;7.90;;
12135;SDS011;6131;56.420;15.548;2024-02-15T11:11:54;22.40;;;8.40;;
12135;SDS011;6131;56.420;15.548;2024-02-15T11:14:27;14.03;;;7.30;;
12135;SDS011;6131;56.420;15.548;2024-02-15T11:16:54;20.13;;;8.33;;
12135;SDS011;6131;56.420;15.548;2024-02-15T11:22:10;17.57;;;7.70;;
12135;SDS011;6131;56.420;15.548;2024-02-15T11:24:46;17.90;;;7.60;;
12135;SDS011;6131;56.420;15.548;2024-02-15T11:27:12;17.83;;;7.30;;
12135;SDS011;6131;56.420;15.548;2024-02-15T11:35:08;14.90;;;7.70;;
12135;SDS011;6131;56.420;15.548;2024-02-15T11:40:27;21.43;;;7.60;;
12135;SDS011;6131;56.420;15.548;2024-02-15T11:45:24;22.90;;;7.33;;
12135;SDS011;6131;56.420;15.548;2024-02-15T11:47:51;16.20;;;7.20;;
12135;SDS011;6131;56.420;15.548;2024-02-15T11:50:18;25.93;;;7.50;;
12135;SDS011;6131;56.420;15.548;2024-02-15T11:52:45;14.00;;;7.63;;
12135;SDS011;6131;56.420;15.548;2024-02-15T11:55:13;15.97;;;7.13;;
12135;SDS011;6131;56.420;15.548;2024-02-15T11:57:40;12.03;;;6.70;;
12135;SDS011;6131;56.420;15.548;2024-02-15T12:00:25;14.23;;;6.30;;
12135;SDS011;6131;56.420;15.548;2024-02-15T12:03:10;10.27;;;6.50;;
12135;SDS011;6131;56.420;15.548;2024-02-15T12:05:57;12.37;;;5.77;;
12135;SDS011;6131;56.420;15.548;2024-02-15T12:08:46;12.93;;;6.70;;
12135;SDS011;6131;56.420;15.548;2024-02-15T12:11:30;11.40;;;6.73;;
12135;SDS011;6131;56.420;15.548;2024-02-15T12:14:35;14.07;;;6.90;;
12135;SDS011;6131;56.420;15.548;2024-02-15T12:17:19;10.83;;;6.20;;
12135;SDS011;6131;56.420;15.548;2024-02-15T12:20:04;10.40;;;6.20;;
12135;SDS011;6131;56.420;15.548;2024-02-15T12:22:40;9.03;;;5.83;;
12135;SDS011;6131;56.420;15.548;2024-02-15T12:25:06;9.17;;;5.97;;
12135;SDS011;6131;56.420;15.548;2024-02-15T12:27:40;8.13;;;5.53;;
12135;SDS011;6131;56.420;15.548;2024-02-15T12:30:08;9.60;;;5.60;;
12135;SDS011;6131;56.420;15.548;2024-02-15T12:32:38;9.80;;;5.37;;
12135;SDS011;6131;56.420;15.548;2024-02-15T12:35:11;10.10;;;6.10;;
12135;SDS011;6131;56.420;15.548;2024-02-15T12:37:41;8.77;;;5.20;;
12135;SDS011;6131;56.420;15.548;2024-02-15T12:40:13;9.53;;;5.20;;
12135;SDS011;6131;56.420;15.548;2024-02-15T12:42:43;8.17;;;5.03;;
12135;SDS011;6131;56.420;15.548;2024-02-15T12:45:16;8.80;;;4.90;;
12135;SDS011;6131;56.420;15.548;2024-02-15T12:47:49;9.47;;;5.87;;
12135;SDS011;6131;56.420;15.548;2024-02-15T12:50:16;6.90;;;4.83;;
12135;SDS011;6131;56.420;15.548;2024-02-15T12:52:42;8.50;;;5.50;;
12135;SDS011;6131;56.420;15.548;2024-02-15T12:55:13;11.43;;;6.13;;
12135;SDS011;6131;56.420;15.548;2024-02-15T12:57:39;10.70;;;6.40;;
12135;SDS011;6131;56.420;15.548;2024-02-15T13:00:09;10.80;;;5.80;;
12135;SDS011;6131;56.420;15.548;2024-02-15T13:02:38;9.90;;;6.03;;
12135;SDS011;6131;56.420;15.548;2024-02-15T13:05:07;9.73;;;5.90;;
12135;SDS011;6131;56.420;15.548;2024-02-15T13:07:34;10.73;;;6.83;;
12135;SDS011;6131;56.420;15.548;2024-02-15T13:10:00;9.73;;;6.33;;
12135;SDS011;6131;56.420;15.548;2024-02-15T13:12:26;7.97;;;5.30;;
12135;SDS011;6131;56.420;15.548;2024-02-15T13:14:53;8.23;;;5.30;;
12135;SDS011;6131;56.420;15.548;2024-02-15T13:17:19;7.57;;;5.00;;
12135;SDS011;6131;56.420;15.548;2024-02-15T13:19:46;6.80;;;4.90;;
12135;SDS011;6131;56.420;15.548;2024-02-15T13:22:14;9.37;;;5.03;;
12135;SDS011;6131;56.420;15.548;2024-02-15T13:24:41;12.53;;;5.60;;
12135;SDS011;6131;56.420;15.548;2024-02-15T13:27:07;8.00;;;5.03;;
12135;SDS011;6131;56.420;15.548;2024-02-15T13:29:37;8.07;;;5.00;;
12135;SDS011;6131;56.420;15.548;2024-02-15T13:32:03;6.93;;;4.63;;
12135;SDS011;6131;56.420;15.548;2024-02-15T13:34:30;6.87;;;4.33;;
12135;SDS011;6131;56.420;15.548;2024-02-15T13:36:58;7.23;;;5.10;;
12135;SDS011;6131;56.420;15.548;2024-02-15T13:39:27;8.13;;;5.23;;
12135;SDS011;6131;56.420;15.548;2024-02-15T13:41:58;7.83;;;4.50;;
12135;SDS011;6131;56.420;15.548;2024-02-15T13:44:24;6.77;;;4.60;;
12135;SDS011;6131;56.420;15.548;2024-02-15T13:46:50;9.07;;;4.60;;
12135;SDS011;6131;56.420;15.548;2024-02-15T13:49:16;7.20;;;4.23;;
12135;SDS011;6131;56.420;15.548;2024-02-15T13:51:42;6.67;;;4.70;;
12135;SDS011;6131;56.420;15.548;2024-02-15T13:54:09;6.60;;;4.43;;
12135;SDS011;6131;56.420;15.548;2024-02-15T13:56:35;8.00;;;4.67;;
12135;SDS011;6131;56.420;15.548;2024-02-15T13:59:01;6.20;;;4.00;;
12135;SDS011;6131;56.420;15.548;2024-02-15T14:01:27;5.70;;;4.10;;
12135;SDS011;6131;56.420;15.548;2024-02-15T14:03:53;7.07;;;4.63;;
12135;SDS011;6131;56.420;15.548;2024-02-15T14:06:20;4.97;;;3.73;;
12135;SDS011;6131;56.420;15.548;2024-02-15T14:08:46;8.33;;;4.10;;
12135;SDS011;6131;56.420;15.548;2024-02-15T14:11:12;5.43;;;3.70;;
12135;SDS011;6131;56.420;15.548;2024-02-15T14:13:39;7.10;;;4.20;;
12135;SDS011;6131;56.420;15.548;2024-02-15T14:16:06;5.90;;;3.70;;
12135;SDS011;6131;56.420;15.548;2024-02-15T14:18:33;5.73;;;3.63;;
12135;SDS011;6131;56.420;15.548;2024-02-15T14:20:59;5.27;;;3.90;;
12135;SDS011;6131;56.420;15.548;2024-02-15T14:23:25;6.67;;;3.77;;
12135;SDS011;6131;56.420;15.548;2024-02-15T14:25:52;13.03;;;3.73;;
12135;SDS011;6131;56.420;15.548;2024-02-15T14:28:26;8.77;;;3.70;;
12135;SDS011;6131;56.420;15.548;2024-02-15T14:30:52;5.40;;;3.53;;
12135;SDS011;6131;56.420;15.548;2024-02-15T14:33:36;5.63;;;3.60;;
12135;SDS011;6131;56.420;15.548;2024-02-15T14:36:02;4.53;;;3.27;;
12135;SDS011;6131;56.420;15.548;2024-02-15T14:38:29;4.30;;;3.40;;
12135;SDS011;6131;56.420;15.548;2024-02-15T14:40:55;5.13;;;3.40;;
12135;SDS011;6131;56.420;15.548;2024-02-15T14:43:23;6.37;;;3.83;;
12135;SDS011;6131;56.420;15.548;2024-02-15T14:45:51;4.73;;;3.47;;
12135;SDS011;6131;56.420;15.548;2024-02-15T14:48:18;6.97;;;3.87;;
12135;SDS011;6131;56.420;15.548;2024-02-15T14:50:45;5.30;;;3.80;;
12135;SDS011;6131;56.420;15.548;2024-02-15T14:53:14;12.73;;;4.10;;
12135;SDS011;6131;56.420;15.548;2024-02-15T14:55:40;5.33;;;3.87;;